Woods Hole, MA (02543)

7:38 PM EDT on July 30, 2016 (GMT -0400)
Smith Building, WHOI Dock | | Change Station

Elev 46 ft 41.54 °N, 70.65 °W | Updated 3 minutes ago

Fog
Fog
73.7 °F
Feels Like 73 °F
N
3.0
Wind Variable Wind from WSW
Gusts 6.0 mph

Today
High -- | Low -- °F
--% Chance of Precip.
Yesterday
High -- | Low -- °F
Precip. -- in
Pressure 30.06 in
Visibility 0.2 miles
Clouds
Heat Index 73 °F
Dew Point 69 °F
Humidity 84%
Rainfall 0.00 in
Snow Depth Not available.
5:35 AM 8:01 PM
Waning Crescent, 10% visible
SPECI KMVY 302335Z 19004KT 1/4SM R24/1400V4000FT FG VV002 21/20 A3006 RMK AO2 T02060200 PNO
Pressure 30.06 in
Visibility 0.2 miles
Clouds
Heat Index 73 °F
Dew Point 69 °F
Humidity 84%
Rainfall 0.00 in
Snow Depth Not available.
5:35 AM 8:01 PM
Waning Crescent, 10% visible
SPECI KMVY 302335Z 19004KT 1/4SM R24/1400V4000FT FG VV002 21/20 A3006 RMK AO2 T02060200 PNO

10-Day Weather Forecast

Almanac

Astronomy

Jul. 30, 2016 Rise Set
Actual Time
Civil Twilight
Nautical Twilight
Astronomical Twilight
Moon
Length of Visible Light
Length of Day
Tomorrow will be .
, % of the Moon is Illuminated

Today's Extremes

State Highs State Lows

Community

WunderPhotos

Upload Photos

1,928,675 photos uploaded!

WunderBlog® & News

Nearby

Air Quality

  Air Quality AQ Index Pollutant
Not available.

Snow Depth

Station Depth Elevation

Earthquake Activity

City Distance Mag. Time & Date
Minimum magnitude displayed is 2.5.

Coastal Water Temperatures

Place Temperature

Stations

Nearby Weather Stations

Station Location Temp. Windchill Dew Point Humidity Wind Precip. Elev Updated Type
                   

Watches & Warnings

There are currently no watches in effect.